Track Кривцова Валерия

Time Latitude Longitude Accuracy (66% radius in meters) Altitude (meters) Speed (km/hour) Bearing (degrees) Battery (%) GPS flag
10:21:42 44.559021 38.197452 12 87.174274124443 0.21794611215591 354.90710449219 66 1 delete
10:21:30 44.559007 38.197462 16 86.358654500284 0 348.38330078125 66 1 delete
10:21:15 44.559000 38.197460 12 86.788235432719 0.21492490172386 340.28460693359 66 1 delete
10:21:03 44.559000 38.197449 12 87.224006141987 0 63.030170440674 66 1 delete
10:20:51 44.559000 38.197449 24 87.831168814547 0.20174935460091 63.030170440674 66 1 delete
10:20:42 44.559000 38.197449 12 88.067099227117 0 63.030170440674 66 1 delete
10:20:30 44.559000 38.197449 8 87.983493671552 0.0034226775169373 63.030170440674 66 1 delete
10:20:18 44.559008 38.197445 12 88.153045867658 0.23512510955334 63.030170440674 66 1 delete
10:20:06 44.559008 38.197445 16 88.145669913775 0 63.030170440674 66 1 delete
10:19:54 44.559008 38.197445 16 88.311987154193 0 63.030170440674 66 1 delete
10:19:42 44.559008 38.197445 8 88.008649854107 0 63.030170440674 66 1 delete
10:19:33 44.559008 38.197445 8 87.944501692032 0 63.030170440674 66 1 delete
10:19:21 44.559001 38.197432 12 88.200412230309 0.16775812208652 63.030170440674 66 1 delete
10:19:09 44.558973 38.197379 8 88.404038759028 1.1481544971466 347.89492797852 66 1 delete
10:19:06 44.558960 38.197381 12 88.436501360957 0.83575946092606 7.1829438209534 66 1 delete
10:18:57 44.558922 38.197402 8 88.967871416204 0.37858247756958 213.74478149414 66 1 delete
10:18:48 44.558919 38.197423 8 89.07696309216 0.876693546772 196.7413482666 66 1 delete
10:18:45 44.558951 38.197444 12 89.116901031926 0.78272086381912 224.38833618164 66 1 delete
10:18:42 44.558970 38.197469 8 89.40139770206 1.6965672969818 233.71862792969 66 1 delete
10:18:39 44.559017 38.197503 8 89.594444510066 1.9132328033447 206.19247436523 66 1 delete
10:18:36 44.559077 38.197529 8 89.801642689693 1.9712182283401 202.16687011719 66 1 delete
10:18:33 44.559150 38.197563 8 90.034886991975 1.8687098026276 200.8549041748 66 1 delete
10:18:30 44.559234 38.197609 8 90.188215950554 1.6939469575882 191.79859924316 66 1 delete
10:18:27 44.559315 38.197658 8 90.660267934269 1.6419798135757 196.43751525879 66 1 delete
10:18:24 44.559385 38.197687 8 91.267179630034 1.7173113822937 195.57208251953 66 1 delete
10:18:21 44.559435 38.197701 8 91.938497916025 1.8299118280411 180.4250793457 66 1 delete
10:18:15 44.559503 38.197697 12 93.411061857229 2.1702120304108 180.90327453613 66 1 delete
10:18:12 44.559560 38.197716 8 94.185900387372 2.219277381897 174.0186920166 66 1 delete
10:18:09 44.559618 38.197727 8 95.046672460535 2.2888200283051 169.07319641113 66 1 delete
10:18:06 44.559697 38.197750 8 95.814593484922 2.2696216106415 209.08801269531 66 1 delete
10:18:03 44.559738 38.197791 8 96.407112786785 2.1556782722473 185.82803344727 66 1 delete
10:18:00 44.559778 38.197844 12 96.954915789397 2.1908011436462 217.4853515625 66 1 delete
10:17:57 44.559843 38.197905 8 97.366937458657 2.2721197605133 216.93734741211 66 1 delete
10:17:54 44.559915 38.197972 8 98.028158930381 2.2583575248718 213.01490783691 66 1 delete
10:17:51 44.560013 38.198026 8 98.759694431668 2.088604927063 203.41505432129 66 1 delete
10:17:48 44.560095 38.198098 8 99.349464337149 2.0900008678436 209.95213317871 66 1 delete
10:17:45 44.560147 38.198130 12 99.897697846151 2.0312485694885 207.53666687012 66 1 delete
10:17:42 44.560218 38.198174 12 100.6476390567 1.8276026248932 202.12205505371 66 1 delete
10:17:39 44.560270 38.198188 12 101.34399684523 1.574192404747 192.56045532227 66 1 delete
10:17:33 44.560309 38.198254 8 102.80195918964 0.61122918128967 203.64633178711 66 1 delete
10:17:24 44.560315 38.198278 8 104.17479719405 0.60735929012299 331.22689819336 66 1 delete
10:17:21 44.560307 38.198304 12 104.84314256789 0.38985309004784 293.67852783203 66 1 delete
10:17:15 44.560311 38.198365 8 106.44933790524 0.88694500923157 199.79911804199 66 1 delete
10:17:09 44.560333 38.198403 8 107.02968151858 1.0148909091949 203.58659362793 66 1 delete
10:17:00 44.560340 38.198413 8 108.04888223689 0.65424221754074 311.8405456543 66 1 delete
10:16:57 44.560334 38.198460 8 108.52108575145 0.62598532438278 282.20471191406 66 1 delete
10:16:54 44.560326 38.198509 8 109.00139446312 0.63195294141769 281.86227416992 66 1 delete
10:16:45 44.560299 38.198592 8 110.53455580515 0.37236055731773 248.16265869141 66 1 delete
10:16:36 44.560280 38.198656 8 112.51277225601 0.37649121880531 230.82791137695 66 1 delete
10:16:33 44.560285 38.198687 8 112.79332959674 0.48780965805054 228.2476348877 66 1 delete